Time;durP1;ratioP1;P1;durP2;ratioP2;P2;SDS_P1;SDS_P2;PMS_P1;PMS_P2;Temp;Humidity;BMP_temperature;BMP_pressure;BME280_temperature;BME280_humidity;BME280_pressure;Samples;Min_cycle;Max_cycle;Signal;HPM_P1;HPM_P2
2022/07/15 00:00:11;;;;;;;;;;;20.30;91.50;;;;;;4992730;28;20327;-71
2022/07/15 00:02:38;;;;;;;;;;;20.20;91.50;;;;;;4996048;28;20534;-72
2022/07/15 00:05:08;;;;;;;;;;;20.10;91.80;;;;;;4995001;28;20215;-73
2022/07/15 00:07:36;;;;;;;;;;;19.90;91.60;;;;;;4994967;28;20901;-74
2022/07/15 00:10:18;;;;;;;;;;;20.00;92.10;;;;;;4985810;28;20105;-72
2022/07/15 00:12:47;;;;;;;;;;;20.00;91.70;;;;;;4997947;28;20236;-71
2022/07/15 00:15:15;;;;;;;;;;;19.90;92.30;;;;;;4995820;28;20207;-72
2022/07/15 00:17:43;;;;;;;;;;;20.20;92.40;;;;;;4993714;28;20686;-71
2022/07/15 00:20:13;;;;;;;;;;;20.30;91.50;;;;;;4993733;28;20221;-72
2022/07/15 00:22:42;;;;;;;;;;;20.10;91.80;;;;;;4991192;28;20211;-69
2022/07/15 00:25:10;;;;;;;;;;;20.00;92.30;;;;;;4993967;28;20087;-73
2022/07/15 00:27:50;;;;;;;;;;;19.90;91.80;;;;;;4995211;28;20948;-71
2022/07/15 00:30:18;;;;;;;;;;;19.70;92.80;;;;;;4991766;28;20269;-72
2022/07/15 00:32:46;;;;;;;;;;;19.90;92.30;;;;;;4992598;28;20259;-71
2022/07/15 00:35:15;;;;;;;;;;;19.80;92.00;;;;;;4992253;28;20203;-71
2022/07/15 00:37:43;;;;;;;;;;;19.70;92.40;;;;;;4992934;28;20200;-71
2022/07/15 00:40:12;;;;;;;;;;;19.70;93.20;;;;;;4988815;28;20200;-73
2022/07/15 00:42:46;;;;;;;;;;;19.90;92.20;;;;;;4991373;28;20187;-70
2022/07/15 00:45:14;;;;;;;;;;;19.90;92.80;;;;;;4992702;28;20199;-71
2022/07/15 00:47:43;;;;;;;;;;;19.80;92.00;;;;;;4999485;28;20207;-71
2022/07/15 00:50:11;;;;;;;;;;;19.60;92.50;;;;;;4994375;28;20202;-70
2022/07/15 00:52:41;;;;;;;;;;;19.50;92.50;;;;;;4990971;28;20207;-71
2022/07/15 00:55:10;;;;;;;;;;;19.50;93.20;;;;;;4994062;28;20671;-70
2022/07/15 00:57:38;;;;;;;;;;;19.70;93.10;;;;;;4992592;28;20199;-72
2022/07/15 01:00:07;;;;;;;;;;;19.80;92.50;;;;;;4991862;28;20196;-72
2022/07/15 01:02:35;;;;;;;;;;;19.60;92.60;;;;;;4991432;28;20200;-71
2022/07/15 01:05:04;;;;;;;;;;;19.50;92.80;;;;;;4992932;28;20191;-71
2022/07/15 01:07:32;;;;;;;;;;;19.50;93.10;;;;;;4996891;28;20672;-71
2022/07/15 01:10:01;;;;;;;;;;;19.50;93.00;;;;;;4996214;28;20614;-71
2022/07/15 01:12:29;;;;;;;;;;;19.40;93.20;;;;;;4985189;28;20210;-72
2022/07/15 01:14:57;;;;;;;;;;;19.70;93.00;;;;;;4990624;28;20266;-71
2022/07/15 01:17:25;;;;;;;;;;;19.70;93.10;;;;;;4985769;28;20200;-73
2022/07/15 01:19:53;;;;;;;;;;;19.70;92.80;;;;;;4991546;28;20235;-71
2022/07/15 01:22:22;;;;;;;;;;;19.80;92.80;;;;;;4985114;28;20738;-71
2022/07/15 01:24:50;;;;;;;;;;;19.70;93.20;;;;;;4992429;28;20204;-71
2022/07/15 01:27:18;;;;;;;;;;;19.50;93.00;;;;;;4990968;28;20218;-71
2022/07/15 01:29:45;;;;;;;;;;;19.40;92.80;;;;;;4989041;28;20200;-71
2022/07/15 01:32:13;;;;;;;;;;;19.30;92.90;;;;;;4989425;28;20203;-71
2022/07/15 01:34:41;;;;;;;;;;;19.50;93.60;;;;;;4994158;28;20217;-71
2022/07/15 01:37:09;;;;;;;;;;;19.90;92.60;;;;;;4998885;28;20200;-71
2022/07/15 01:39:38;;;;;;;;;;;19.80;92.60;;;;;;4991642;28;20204;-71
2022/07/15 01:42:06;;;;;;;;;;;19.60;92.40;;;;;;4985807;28;20208;-71
2022/07/15 01:44:33;;;;;;;;;;;19.40;92.00;;;;;;4994228;28;20184;-70
2022/07/15 01:47:01;;;;;;;;;;;19.00;92.40;;;;;;4991274;28;20578;-72
2022/07/15 01:49:31;;;;;;;;;;;18.60;92.60;;;;;;4997935;28;20206;-71
2022/07/15 01:52:01;;;;;;;;;;;18.20;93.20;;;;;;4989801;28;20203;-72
2022/07/15 01:54:29;;;;;;;;;;;17.90;93.30;;;;;;4991830;28;20206;-72
2022/07/15 01:56:59;;;;;;;;;;;17.90;93.90;;;;;;4990095;28;20136;-72
2022/07/15 01:59:27;;;;;;;;;;;17.90;94.00;;;;;;4992741;28;20271;-71
2022/07/15 02:01:57;;;;;;;;;;;18.00;94.20;;;;;;4987064;28;20756;-67
2022/07/15 02:04:25;;;;;;;;;;;18.00;94.30;;;;;;4989979;28;20698;-67
2022/07/15 02:06:52;;;;;;;;;;;17.90;94.50;;;;;;4980946;28;20779;-71
2022/07/15 02:09:20;;;;;;;;;;;18.00;95.00;;;;;;4987963;28;20204;-69
2022/07/15 02:11:48;;;;;;;;;;;18.00;94.70;;;;;;4987839;28;20115;-71
2022/07/15 02:14:17;;;;;;;;;;;17.90;94.60;;;;;;4992089;28;20212;-71
2022/07/15 02:16:45;;;;;;;;;;;17.90;95.00;;;;;;4988443;28;20071;-70
2022/07/15 02:19:12;;;;;;;;;;;18.00;95.10;;;;;;4994069;28;20069;-70
2022/07/15 02:21:40;;;;;;;;;;;18.20;94.70;;;;;;5012004;28;20248;-70
2022/07/15 02:24:08;;;;;;;;;;;18.50;94.80;;;;;;4998638;28;20210;-70
2022/07/15 02:26:36;;;;;;;;;;;18.80;94.40;;;;;;4993367;28;20226;-71
2022/07/15 02:29:04;;;;;;;;;;;18.80;94.20;;;;;;5012112;28;20203;-71
2022/07/15 02:31:34;;;;;;;;;;;19.20;93.80;;;;;;5027035;28;20257;-71
2022/07/15 02:34:02;;;;;;;;;;;19.00;93.90;;;;;;4999082;28;20157;-73
2022/07/15 02:36:30;;;;;;;;;;;18.80;94.30;;;;;;4991173;28;20720;-71
2022/07/15 02:38:58;;;;;;;;;;;18.80;94.00;;;;;;4987995;28;20210;-71
2022/07/15 02:41:26;;;;;;;;;;;19.00;94.40;;;;;;4987195;28;20620;-72
2022/07/15 02:43:54;;;;;;;;;;;19.00;93.90;;;;;;4989719;28;20207;-71
2022/07/15 02:46:22;;;;;;;;;;;18.50;93.60;;;;;;4991841;28;20199;-73
2022/07/15 02:48:51;;;;;;;;;;;18.00;94.60;;;;;;4992788;28;20319;-71
2022/07/15 02:51:19;;;;;;;;;;;18.00;95.40;;;;;;4986375;28;20730;-71
2022/07/15 02:53:46;;;;;;;;;;;18.20;95.20;;;;;;4993303;28;20246;-70
2022/07/15 02:56:14;;;;;;;;;;;18.30;95.20;;;;;;4989278;28;20195;-71
2022/07/15 02:58:42;;;;;;;;;;;18.30;94.70;;;;;;4990608;28;20614;-70
2022/07/15 03:01:10;;;;;;;;;;;18.50;94.20;;;;;;4990994;28;20203;-71
2022/07/15 03:03:38;;;;;;;;;;;18.30;94.40;;;;;;4988832;28;20231;-73
2022/07/15 03:06:08;;;;;;;;;;;18.10;94.60;;;;;;4989990;28;20199;-71
2022/07/15 03:08:35;;;;;;;;;;;17.90;94.80;;;;;;4984202;28;20254;-71
2022/07/15 03:11:03;;;;;;;;;;;17.80;95.40;;;;;;4981315;28;20195;-73
2022/07/15 03:13:31;;;;;;;;;;;17.50;95.50;;;;;;4989402;28;20231;-71
2022/07/15 03:15:58;;;;;;;;;;;17.40;95.90;;;;;;4990309;28;20214;-71
2022/07/15 03:18:26;;;;;;;;;;;17.30;96.20;;;;;;4987785;28;20654;-71
2022/07/15 03:20:54;;;;;;;;;;;17.40;96.50;;;;;;4991235;28;20299;-71
2022/07/15 03:23:23;;;;;;;;;;;17.50;96.30;;;;;;4988727;28;20196;-73
2022/07/15 03:25:51;;;;;;;;;;;17.50;96.00;;;;;;4991676;28;20242;-71
2022/07/15 03:28:20;;;;;;;;;;;17.50;95.90;;;;;;4989577;28;20615;-71
2022/07/15 03:30:47;;;;;;;;;;;17.60;96.00;;;;;;4990726;28;20234;-71
2022/07/15 03:33:15;;;;;;;;;;;17.60;96.20;;;;;;4989683;28;20217;-70
2022/07/15 03:35:43;;;;;;;;;;;17.70;96.40;;;;;;4990237;28;20262;-70
2022/07/15 03:38:11;;;;;;;;;;;17.70;95.70;;;;;;4997216;28;20254;-72
2022/07/15 03:40:41;;;;;;;;;;;17.70;96.00;;;;;;4986508;28;20311;-71
2022/07/15 03:43:09;;;;;;;;;;;17.80;95.90;;;;;;4993302;28;20196;-70
2022/07/15 03:45:36;;;;;;;;;;;17.60;95.70;;;;;;4985201;28;20202;-70
2022/07/15 03:48:05;;;;;;;;;;;17.40;96.20;;;;;;4990789;28;20675;-71
2022/07/15 03:50:33;;;;;;;;;;;17.30;96.50;;;;;;4990967;28;20651;-70
2022/07/15 03:53:00;;;;;;;;;;;17.10;96.70;;;;;;4989875;28;20209;-71
2022/07/15 03:55:28;;;;;;;;;;;17.00;97.20;;;;;;4993969;28;20171;-72
2022/07/15 03:57:57;;;;;;;;;;;17.10;97.20;;;;;;4992011;28;20715;-71
2022/07/15 04:00:25;;;;;;;;;;;17.00;97.20;;;;;;4990252;28;20256;-71
2022/07/15 04:02:53;;;;;;;;;;;16.90;97.40;;;;;;4990861;28;20103;-73
2022/07/15 04:05:21;;;;;;;;;;;17.00;98.00;;;;;;4988498;28;20090;-71
2022/07/15 04:07:48;;;;;;;;;;;17.00;97.70;;;;;;4988338;28;20672;-70
2022/07/15 04:10:16;;;;;;;;;;;17.00;98.10;;;;;;4987297;28;20201;-71
2022/07/15 04:12:44;;;;;;;;;;;17.10;97.40;;;;;;4994962;28;20222;-71
2022/07/15 04:15:14;;;;;;;;;;;17.20;97.50;;;;;;4991965;28;20198;-71
2022/07/15 04:17:42;;;;;;;;;;;17.10;97.60;;;;;;4990407;28;20573;-70
2022/07/15 04:20:12;;;;;;;;;;;17.20;98.00;;;;;;4992108;28;20696;-71
2022/07/15 04:22:40;;;;;;;;;;;17.10;98.00;;;;;;4991806;28;20245;-71
2022/07/15 04:25:08;;;;;;;;;;;17.20;98.00;;;;;;4993368;28;20199;-68
2022/07/15 04:27:36;;;;;;;;;;;17.20;98.10;;;;;;4991256;28;20254;-69
2022/07/15 04:30:05;;;;;;;;;;;17.10;98.20;;;;;;4982388;28;21434;-69
2022/07/15 04:32:34;;;;;;;;;;;17.10;98.40;;;;;;4977329;28;20207;-69
2022/07/15 04:35:02;;;;;;;;;;;17.10;98.40;;;;;;4977707;28;20214;-68
2022/07/15 04:37:30;;;;;;;;;;;17.10;98.70;;;;;;4977659;28;20207;-69
2022/07/15 04:39:58;;;;;;;;;;;17.00;98.70;;;;;;4976220;28;20215;-69
2022/07/15 04:42:26;;;;;;;;;;;16.90;99.40;;;;;;4975958;28;20242;-69
2022/07/15 04:44:54;;;;;;;;;;;17.00;99.40;;;;;;4980863;28;20707;-69
2022/07/15 04:47:22;;;;;;;;;;;17.20;99.00;;;;;;4978439;28;20199;-69
2022/07/15 04:52:36;;;;;;;;;;;17.20;99.30;;;;;;4978154;28;20215;-69
2022/07/15 04:55:05;;;;;;;;;;;17.30;99.60;;;;;;4977322;28;20363;-69
2022/07/15 04:57:33;;;;;;;;;;;17.50;99.00;;;;;;4977024;28;20259;-69
2022/07/15 05:00:00;;;;;;;;;;;17.60;98.80;;;;;;4976641;28;20204;-69
2022/07/15 05:02:52;;;;;;;;;;;17.80;98.60;;;;;;4973293;28;20738;-70
2022/07/15 05:05:21;;;;;;;;;;;18.20;98.50;;;;;;4975758;28;20207;-70
2022/07/15 05:07:51;;;;;;;;;;;18.30;97.90;;;;;;4977535;28;20195;-69
2022/07/15 05:10:18;;;;;;;;;;;18.20;97.60;;;;;;4974880;28;20295;-72
2022/07/15 05:12:46;;;;;;;;;;;18.10;97.60;;;;;;4976913;28;20212;-70
2022/07/15 05:15:14;;;;;;;;;;;17.90;97.80;;;;;;4978357;28;20204;-69
2022/07/15 05:17:42;;;;;;;;;;;17.80;98.10;;;;;;4977516;28;20211;-69
2022/07/15 05:20:10;;;;;;;;;;;17.60;98.40;;;;;;4973835;28;20233;-70
2022/07/15 05:22:39;;;;;;;;;;;17.50;98.80;;;;;;4990175;28;21266;-69
2022/07/15 05:25:11;;;;;;;;;;;17.50;99.10;;;;;;4977908;28;20258;-68
2022/07/15 05:27:39;;;;;;;;;;;17.40;99.20;;;;;;4976864;28;20214;-70
2022/07/15 05:30:12;;;;;;;;;;;17.40;99.20;;;;;;4975080;28;20230;-69
2022/07/15 05:32:40;;;;;;;;;;;17.40;99.40;;;;;;4975484;28;20210;-69
2022/07/15 05:35:08;;;;;;;;;;;17.50;99.50;;;;;;4977545;28;21469;-70
2022/07/15 05:37:37;;;;;;;;;;;17.40;99.40;;;;;;4975439;28;20273;-71
2022/07/15 05:40:11;;;;;;;;;;;17.40;99.60;;;;;;4975824;28;20199;-71
2022/07/15 05:42:39;;;;;;;;;;;17.40;99.80;;;;;;4975656;28;20290;-69
2022/07/15 05:45:08;;;;;;;;;;;17.50;99.80;;;;;;4975666;28;20207;-70
2022/07/15 05:47:36;;;;;;;;;;;17.60;99.80;;;;;;4976733;28;20208;-71
2022/07/15 05:50:07;;;;;;;;;;;17.60;99.80;;;;;;4975367;28;20568;-68
2022/07/15 05:52:36;;;;;;;;;;;17.60;99.90;;;;;;4973672;28;20208;-68
2022/07/15 05:55:07;;;;;;;;;;;17.80;99.90;;;;;;4977837;28;20371;-70
2022/07/15 05:57:35;;;;;;;;;;;17.90;99.80;;;;;;4975443;28;20199;-70
2022/07/15 06:00:12;;;;;;;;;;;17.80;99.90;;;;;;4973144;28;20204;-69
2022/07/15 06:02:40;;;;;;;;;;;17.80;99.90;;;;;;4974887;28;20681;-69
2022/07/15 06:05:08;;;;;;;;;;;17.90;99.90;;;;;;4973670;28;20854;-71
2022/07/15 06:07:36;;;;;;;;;;;17.90;99.90;;;;;;4987112;28;20209;-66
2022/07/15 06:10:08;;;;;;;;;;;18.10;99.90;;;;;;4989386;28;20196;-67
2022/07/15 06:12:36;;;;;;;;;;;18.20;99.90;;;;;;4993157;28;20203;-66
2022/07/15 06:15:08;;;;;;;;;;;18.10;99.90;;;;;;4992450;28;20623;-67
2022/07/15 06:17:37;;;;;;;;;;;18.20;99.90;;;;;;5010190;28;20620;-67
2022/07/15 06:20:07;;;;;;;;;;;18.20;99.90;;;;;;4997922;28;20330;-67
2022/07/15 06:22:39;;;;;;;;;;;18.20;99.90;;;;;;4998632;28;20567;-67
2022/07/15 06:25:08;;;;;;;;;;;18.10;99.90;;;;;;4994198;28;20294;-67
2022/07/15 06:27:36;;;;;;;;;;;18.10;99.90;;;;;;4993000;28;20198;-67
2022/07/15 06:30:06;;;;;;;;;;;18.10;99.90;;;;;;4998973;28;20952;-66
2022/07/15 06:32:34;;;;;;;;;;;18.30;99.90;;;;;;4990449;28;20226;-67
2022/07/15 06:35:05;;;;;;;;;;;18.40;99.90;;;;;;4991304;28;20215;-67
2022/07/15 06:37:33;;;;;;;;;;;18.50;99.90;;;;;;4986916;28;20196;-68
2022/07/15 06:40:09;;;;;;;;;;;18.50;99.90;;;;;;4990307;28;20195;-66
2022/07/15 06:42:37;;;;;;;;;;;18.80;99.90;;;;;;4989354;28;20265;-68
2022/07/15 06:45:07;;;;;;;;;;;19.10;99.10;;;;;;5004019;28;20204;-65
2022/07/15 06:47:35;;;;;;;;;;;19.30;98.60;;;;;;5011965;28;20204;-68
2022/07/15 06:50:05;;;;;;;;;;;19.40;98.20;;;;;;5011845;28;20253;-68
2022/07/15 06:52:35;;;;;;;;;;;19.40;97.90;;;;;;5011263;28;20203;-68
2022/07/15 06:55:05;;;;;;;;;;;19.50;98.00;;;;;;5011312;28;20211;-67
2022/07/15 06:57:35;;;;;;;;;;;19.60;98.00;;;;;;5011469;28;20199;-68
2022/07/15 07:00:04;;;;;;;;;;;19.70;97.60;;;;;;4993030;28;20574;-68
2022/07/15 07:02:33;;;;;;;;;;;19.80;97.80;;;;;;4992973;28;20207;-68
2022/07/15 07:05:01;;;;;;;;;;;20.10;97.70;;;;;;5001220;28;20233;-68
2022/07/15 07:07:34;;;;;;;;;;;20.20;97.50;;;;;;5004756;28;20195;-67
2022/07/15 07:10:02;;;;;;;;;;;20.40;97.60;;;;;;4998136;28;20202;-68
2022/07/15 07:12:37;;;;;;;;;;;20.40;97.00;;;;;;4996001;28;20211;-68
2022/07/15 07:15:07;;;;;;;;;;;20.40;96.40;;;;;;4992809;28;20199;-65
2022/07/15 07:17:35;;;;;;;;;;;20.60;96.50;;;;;;4992892;28;20694;-68
2022/07/15 07:20:07;;;;;;;;;;;20.80;95.90;;;;;;4993243;28;20261;-68
2022/07/15 07:22:35;;;;;;;;;;;21.10;96.00;;;;;;4991995;28;20689;-65
2022/07/15 07:25:06;;;;;;;;;;;21.30;95.90;;;;;;4992396;28;20207;-68
2022/07/15 07:27:34;;;;;;;;;;;21.60;95.40;;;;;;4992450;28;20242;-67
2022/07/15 07:30:07;;;;;;;;;;;21.50;95.20;;;;;;4992286;28;20199;-68
2022/07/15 07:32:35;;;;;;;;;;;21.30;96.10;;;;;;4992025;28;20214;-68
2022/07/15 07:35:07;;;;;;;;;;;21.20;95.30;;;;;;4992375;28;20206;-68
2022/07/15 07:37:35;;;;;;;;;;;20.90;96.40;;;;;;5000404;28;20250;-68
2022/07/15 07:40:07;;;;;;;;;;;20.90;96.40;;;;;;4994711;28;20669;-68
2022/07/15 07:42:35;;;;;;;;;;;21.20;96.30;;;;;;4988297;28;20553;-68
2022/07/15 07:45:03;;;;;;;;;;;21.30;96.30;;;;;;4992389;28;20673;-68
2022/07/15 07:47:37;;;;;;;;;;;21.30;96.00;;;;;;4992021;28;20204;-67
2022/07/15 07:50:05;;;;;;;;;;;21.40;95.60;;;;;;4992071;28;20844;-68
2022/07/15 07:52:33;;;;;;;;;;;21.70;94.90;;;;;;4993650;28;20070;-68
2022/07/15 07:55:01;;;;;;;;;;;22.00;96.20;;;;;;4996177;28;20208;-68
2022/07/15 07:57:33;;;;;;;;;;;22.30;94.60;;;;;;5009488;28;20253;-67
2022/07/15 08:00:01;;;;;;;;;;;22.40;92.90;;;;;;5014812;28;20249;-69
2022/07/15 08:02:31;;;;;;;;;;;22.30;92.70;;;;;;5014781;28;20207;-67
2022/07/15 08:05:05;;;;;;;;;;;22.10;93.10;;;;;;5014593;28;20292;-68
2022/07/15 08:07:35;;;;;;;;;;;21.90;93.70;;;;;;5014355;28;20210;-68
2022/07/15 08:10:06;;;;;;;;;;;21.60;93.80;;;;;;4996962;28;20200;-68
2022/07/15 08:12:34;;;;;;;;;;;21.30;93.70;;;;;;4995227;28;20218;-69
2022/07/15 08:15:06;;;;;;;;;;;21.00;94.80;;;;;;4995770;28;20196;-68
2022/07/15 08:17:34;;;;;;;;;;;20.90;94.50;;;;;;4995377;28;20271;-68
2022/07/15 08:20:04;;;;;;;;;;;20.70;95.20;;;;;;4995354;28;20204;-69
2022/07/15 08:22:32;;;;;;;;;;;20.40;95.40;;;;;;4995407;28;20203;-68
2022/07/15 08:25:00;;;;;;;;;;;20.50;95.60;;;;;;4995655;28;20258;-68
2022/07/15 08:27:31;;;;;;;;;;;20.70;95.40;;;;;;4995143;28;20206;-68
2022/07/15 08:29:58;;;;;;;;;;;21.00;94.80;;;;;;4994993;28;20350;-67
2022/07/15 08:32:26;;;;;;;;;;;21.30;95.30;;;;;;4995219;28;20199;-68
2022/07/15 08:34:54;;;;;;;;;;;21.60;94.80;;;;;;4994912;28;20208;-68
2022/07/15 08:37:25;;;;;;;;;;;21.80;94.50;;;;;;4995010;28;20205;-65
2022/07/15 08:39:53;;;;;;;;;;;21.80;94.50;;;;;;4995382;28;20196;-67
2022/07/15 08:42:21;;;;;;;;;;;22.00;93.70;;;;;;4994942;28;20247;-69
2022/07/15 08:44:49;;;;;;;;;;;22.10;93.50;;;;;;4994807;28;20203;-69
2022/07/15 08:47:17;;;;;;;;;;;22.10;93.30;;;;;;5011956;28;20210;-68
2022/07/15 08:50:05;;;;;;;;;;;22.00;93.00;;;;;;5000519;28;20204;-69
2022/07/15 08:52:34;;;;;;;;;;;21.80;93.40;;;;;;4994813;28;20684;-68
2022/07/15 08:55:05;;;;;;;;;;;21.70;93.10;;;;;;4994970;28;20665;-68
2022/07/15 08:57:33;;;;;;;;;;;21.80;94.00;;;;;;4994902;28;20620;-68
2022/07/15 09:00:01;;;;;;;;;;;21.80;93.70;;;;;;4994877;28;20204;-69
2022/07/15 09:02:30;;;;;;;;;;;22.20;93.20;;;;;;4994184;28;20625;-68
2022/07/15 09:05:22;;;;;;;;;;;22.70;92.00;;;;;;4993823;28;20231;-69
2022/07/15 09:07:53;;;;;;;;;;;23.00;92.20;;;;;;4994816;28;20675;-69
2022/07/15 09:10:21;;;;;;;;;;;22.80;91.00;;;;;;4993154;28;20246;-69
2022/07/15 09:12:49;;;;;;;;;;;22.50;90.90;;;;;;4994187;28;20274;-67
2022/07/15 09:15:30;;;;;;;;;;;22.50;91.10;;;;;;4994501;28;20715;-69
2022/07/15 09:18:07;;;;;;;;;;;22.30;91.40;;;;;;4994367;28;20484;-68
2022/07/15 09:20:35;;;;;;;;;;;22.30;91.10;;;;;;5013909;28;20203;-69
2022/07/15 09:23:04;;;;;;;;;;;22.20;91.80;;;;;;5013019;28;20228;-68
2022/07/15 09:25:34;;;;;;;;;;;22.30;91.40;;;;;;5012954;28;20999;-69
2022/07/15 09:28:05;;;;;;;;;;;22.70;90.90;;;;;;5012965;28;20211;-69
2022/07/15 09:36:07;;;;;;;;;;;23.30;91.10;;;;;;4985069;28;20219;-69
2022/07/15 09:38:41;;;;;;;;;;;23.60;90.40;;;;;;4993711;28;20196;-67
2022/07/15 09:41:09;;;;;;;;;;;23.30;89.20;;;;;;5010429;23;20195;-64
2022/07/15 09:43:44;;;;;;;;;;;23.00;90.30;;;;;;5000830;28;20692;-64
2022/07/15 09:46:12;;;;;;;;;;;22.90;90.10;;;;;;5011451;28;20207;-64
2022/07/15 09:48:41;;;;;;;;;;;22.90;89.50;;;;;;5013963;28;20206;-65
2022/07/15 09:51:09;;;;;;;;;;;22.80;90.10;;;;;;5013448;28;20712;-64
2022/07/15 09:53:39;;;;;;;;;;;22.90;90.10;;;;;;5016858;28;20208;-65
2022/07/15 09:56:08;;;;;;;;;;;22.80;90.00;;;;;;5032115;28;20577;-64
2022/07/15 09:58:40;;;;;;;;;;;22.90;90.20;;;;;;5032212;28;20199;-64
2022/07/15 10:01:08;;;;;;;;;;;23.10;90.20;;;;;;5032173;28;20203;-65
2022/07/15 10:03:37;;;;;;;;;;;23.00;89.10;;;;;;5031896;28;20207;-64
2022/07/15 10:06:05;;;;;;;;;;;22.90;89.40;;;;;;5031497;28;20211;-64
2022/07/15 10:08:34;;;;;;;;;;;22.70;89.60;;;;;;5031984;28;20195;-64
2022/07/15 10:11:09;;;;;;;;;;;22.80;90.30;;;;;;5020316;28;20646;-64
2022/07/15 10:13:57;;;;;;;;;;;23.00;90.00;;;;;;5027015;28;20244;-64
2022/07/15 10:16:34;;;;;;;;;;;23.00;88.50;;;;;;5031695;28;20252;-64
2022/07/15 10:19:07;;;;;;;;;;;23.20;88.20;;;;;;5032138;28;20298;-64
2022/07/15 10:21:39;;;;;;;;;;;23.40;89.00;;;;;;5032077;28;20616;-64
2022/07/15 10:24:16;;;;;;;;;;;24.10;87.60;;;;;;5031816;28;20622;-64
2022/07/15 10:26:51;;;;;;;;;;;24.70;85.90;;;;;;5018669;28;20703;-65
2022/07/15 10:29:19;;;;;;;;;;;25.40;85.30;;;;;;5012981;28;20633;-65
2022/07/15 10:31:55;;;;;;;;;;;25.80;85.40;;;;;;5006442;28;20203;-64
2022/07/15 10:34:24;;;;;;;;;;;26.10;84.50;;;;;;5007789;28;20257;-64
2022/07/15 10:36:56;;;;;;;;;;;26.50;82.90;;;;;;5012359;28;20211;-64
2022/07/15 10:39:26;;;;;;;;;;;25.80;82.70;;;;;;5012475;28;20283;-64
2022/07/15 10:41:57;;;;;;;;;;;24.90;83.40;;;;;;5025252;28;20211;-64
2022/07/15 10:44:25;;;;;;;;;;;24.30;86.30;;;;;;5022654;28;20257;-64
2022/07/15 10:47:09;;;;;;;;;;;24.00;85.70;;;;;;5030825;28;20215;-64
2022/07/15 10:49:37;;;;;;;;;;;23.80;85.00;;;;;;5019334;28;20235;-64
2022/07/15 10:52:14;;;;;;;;;;;23.60;86.20;;;;;;5031320;28;20252;-64
2022/07/15 10:54:43;;;;;;;;;;;23.60;86.80;;;;;;5031158;28;20207;-63
2022/07/15 10:57:15;;;;;;;;;;;23.90;85.90;;;;;;5031472;28;20257;-64
2022/07/15 10:59:50;;;;;;;;;;;24.10;85.60;;;;;;5026361;28;20203;-64
2022/07/15 11:02:20;;;;;;;;;;;23.80;84.80;;;;;;5006721;28;20199;-64
2022/07/15 11:04:48;;;;;;;;;;;23.70;85.50;;;;;;5012244;28;20242;-64
2022/07/15 11:07:35;;;;;;;;;;;23.80;85.50;;;;;;5012312;28;20583;-64
2022/07/15 11:10:16;;;;;;;;;;;23.70;85.20;;;;;;5012340;28;20207;-64
2022/07/15 11:13:12;;;;;;;;;;;23.40;85.20;;;;;;5018671;28;20202;-64
2022/07/15 11:15:41;;;;;;;;;;;23.40;84.60;;;;;;5008024;28;20204;-64
2022/07/15 11:18:09;;;;;;;;;;;24.00;85.00;;;;;;5020583;28;20199;-65
2022/07/15 11:20:38;;;;;;;;;;;24.30;84.30;;;;;;5030984;28;20249;-64
2022/07/15 11:23:07;;;;;;;;;;;24.10;82.20;;;;;;5030827;28;20684;-64
2022/07/15 11:25:36;;;;;;;;;;;24.30;83.80;;;;;;5030876;28;20680;-65
2022/07/15 11:28:05;;;;;;;;;;;24.40;84.60;;;;;;5033859;28;20679;-65
2022/07/15 11:30:35;;;;;;;;;;;24.10;84.40;;;;;;5035133;28;20201;-64
2022/07/15 11:33:05;;;;;;;;;;;23.80;84.20;;;;;;5029396;28;20219;-64
2022/07/15 11:35:43;;;;;;;;;;;23.70;85.30;;;;;;5034961;28;20215;-64
2022/07/15 11:38:11;;;;;;;;;;;23.80;85.50;;;;;;5034998;28;20209;-64
2022/07/15 11:46:13;;;;;;;;;;;25.20;84.10;;;;;;5034628;28;20208;-64
2022/07/15 11:48:43;;;;;;;;;;;25.70;82.50;;;;;;5034670;28;20205;-64
2022/07/15 11:51:11;;;;;;;;;;;26.30;81.00;;;;;;5018269;28;20200;-64
2022/07/15 11:53:40;;;;;;;;;;;27.10;79.10;;;;;;5015502;28;20257;-64
2022/07/15 11:56:09;;;;;;;;;;;27.80;76.10;;;;;;5015460;28;20199;-64
2022/07/15 11:58:37;;;;;;;;;;;26.90;77.00;;;;;;5015651;28;20296;-64
2022/07/15 12:01:07;;;;;;;;;;;26.60;79.30;;;;;;5015167;28;20233;-65
2022/07/15 12:03:36;;;;;;;;;;;26.90;78.50;;;;;;5015325;28;20535;-64
2022/07/15 12:06:07;;;;;;;;;;;27.20;78.00;;;;;;5015310;28;20734;-65
2022/07/15 12:08:35;;;;;;;;;;;27.50;77.60;;;;;;5025642;28;20195;-64
2022/07/15 12:11:03;;;;;;;;;;;27.80;76.00;;;;;;5025674;28;20245;-64
2022/07/15 12:13:40;;;;;;;;;;;27.80;76.20;;;;;;5025474;28;20253;-64
2022/07/15 12:16:08;;;;;;;;;;;27.00;76.10;;;;;;5034349;28;20198;-64
2022/07/15 12:18:40;;;;;;;;;;;26.30;77.70;;;;;;5034284;28;20205;-64
2022/07/15 12:21:09;;;;;;;;;;;25.70;77.30;;;;;;5033759;28;20281;-64
2022/07/15 12:23:37;;;;;;;;;;;25.50;78.60;;;;;;5033808;28;20210;-64
2022/07/15 12:26:06;;;;;;;;;;;25.10;78.20;;;;;;5029833;28;20202;-64
2022/07/15 12:28:35;;;;;;;;;;;24.70;80.10;;;;;;5008706;28;20656;-64
2022/07/15 12:31:02;;;;;;;;;;;24.60;81.80;;;;;;5008250;28;20262;-64
2022/07/15 12:33:34;;;;;;;;;;;24.50;80.70;;;;;;5008115;28;20210;-64
2022/07/15 12:36:17;;;;;;;;;;;24.40;79.80;;;;;;5015071;28;20208;-64
2022/07/15 12:38:45;;;;;;;;;;;24.60;80.00;;;;;;5013769;28;20282;-64
2022/07/15 12:41:23;;;;;;;;;;;24.60;79.70;;;;;;5016228;28;20203;-65
2022/07/15 12:43:52;;;;;;;;;;;24.80;79.10;;;;;;5023877;28;20613;-64
2022/07/15 12:46:20;;;;;;;;;;;24.80;77.80;;;;;;5033570;28;20218;-64
2022/07/15 12:48:49;;;;;;;;;;;25.40;78.80;;;;;;5033761;28;20217;-66
2022/07/15 12:51:24;;;;;;;;;;;26.10;77.40;;;;;;5033483;28;20205;-65
2022/07/15 12:53:52;;;;;;;;;;;26.70;74.90;;;;;;5033074;28;20203;-65
2022/07/15 12:56:20;;;;;;;;;;;27.10;75.40;;;;;;5033203;28;20565;-65
2022/07/15 12:58:50;;;;;;;;;;;27.00;74.50;;;;;;5013631;28;20199;-65
2022/07/15 13:01:18;;;;;;;;;;;27.20;73.50;;;;;;5014353;28;20191;-65
2022/07/15 13:03:46;;;;;;;;;;;27.60;74.40;;;;;;5014340;28;20225;-65
2022/07/15 13:06:15;;;;;;;;;;;28.30;74.00;;;;;;5014153;28;20642;-65
2022/07/15 13:08:44;;;;;;;;;;;27.90;72.60;;;;;;5014265;28;20155;-64
2022/07/15 13:11:12;;;;;;;;;;;27.70;72.00;;;;;;5014057;28;20497;-65
2022/07/15 13:13:42;;;;;;;;;;;28.10;72.10;;;;;;5024175;28;20198;-65
2022/07/15 13:16:09;;;;;;;;;;;28.60;71.90;;;;;;5014721;28;20661;-65
2022/07/15 13:18:37;;;;;;;;;;;28.90;70.70;;;;;;5014270;28;20736;-65
2022/07/15 13:21:06;;;;;;;;;;;29.40;71.20;;;;;;5014016;28;20227;-65
2022/07/15 13:23:34;;;;;;;;;;;29.10;69.70;;;;;;5014328;28;20682;-65
2022/07/15 13:26:03;;;;;;;;;;;29.60;68.40;;;;;;5014113;28;20273;-65
2022/07/15 13:28:31;;;;;;;;;;;30.00;69.40;;;;;;5013833;28;20660;-66
2022/07/15 13:30:58;;;;;;;;;;;30.70;67.50;;;;;;5013528;28;20203;-66
2022/07/15 13:33:27;;;;;;;;;;;30.70;65.90;;;;;;5013788;28;20199;-65
2022/07/15 13:35:57;;;;;;;;;;;31.00;65.60;;;;;;5013489;28;20265;-65
2022/07/15 13:38:25;;;;;;;;;;;30.70;66.20;;;;;;5013864;28;20210;-66
2022/07/15 13:40:53;;;;;;;;;;;31.10;65.10;;;;;;5013406;28;20200;-66
2022/07/15 13:43:22;;;;;;;;;;;31.60;64.70;;;;;;5030328;28;20198;-65
2022/07/15 13:45:50;;;;;;;;;;;31.40;64.10;;;;;;5032284;28;20178;-65
2022/07/15 13:48:18;;;;;;;;;;;31.00;64.90;;;;;;5023260;28;20285;-66
2022/07/15 13:53:31;;;;;;;;;;;30.80;64.50;;;;;;5032452;28;20216;-65
2022/07/15 13:55:59;;;;;;;;;;;30.90;64.20;;;;;;5032154;28;20241;-65
2022/07/15 13:58:28;;;;;;;;;;;31.20;63.70;;;;;;5032403;28;20249;-66
2022/07/15 14:00:56;;;;;;;;;;;31.50;62.90;;;;;;5031990;28;20660;-65
2022/07/15 14:03:24;;;;;;;;;;;31.20;62.40;;;;;;5026965;28;20271;-65
2022/07/15 14:05:52;;;;;;;;;;;31.30;64.20;;;;;;5013259;28;20187;-66
2022/07/15 14:08:19;;;;;;;;;;;30.80;64.00;;;;;;5013345;28;20636;-65
2022/07/15 14:10:47;;;;;;;;;;;30.60;63.60;;;;;;5012923;28;20203;-65
2022/07/15 14:13:15;;;;;;;;;;;30.60;63.40;;;;;;5018126;28;20187;-65
2022/07/15 14:15:44;;;;;;;;;;;30.40;63.10;;;;;;5031884;28;20198;-65
2022/07/15 14:18:12;;;;;;;;;;;30.80;62.50;;;;;;5032097;28;20206;-66
2022/07/15 14:20:41;;;;;;;;;;;30.70;61.90;;;;;;5024369;28;20214;-66
2022/07/15 14:23:09;;;;;;;;;;;31.00;62.30;;;;;;5012560;28;20203;-65
2022/07/15 14:25:36;;;;;;;;;;;31.30;62.30;;;;;;5013267;28;20204;-65
2022/07/15 14:28:04;;;;;;;;;;;31.70;61.50;;;;;;5012862;28;20261;-65
2022/07/15 14:30:32;;;;;;;;;;;31.80;61.00;;;;;;5012795;28;20203;-65
2022/07/15 14:33:02;;;;;;;;;;;31.40;60.80;;;;;;5012461;28;20195;-65
2022/07/15 14:35:30;;;;;;;;;;;31.40;60.30;;;;;;5014130;28;20722;-65
2022/07/15 14:37:58;;;;;;;;;;;31.00;61.40;;;;;;5031826;28;20198;-65
2022/07/15 14:40:26;;;;;;;;;;;31.30;61.80;;;;;;5028353;28;20204;-65
2022/07/15 14:42:54;;;;;;;;;;;31.40;61.60;;;;;;5023666;28;20545;-65
2022/07/15 14:45:22;;;;;;;;;;;31.50;61.70;;;;;;5031652;28;20206;-66